Bookmark and Share
Track history (hours):
 

Hanjin Ottawa

Last reported at 2014-Apr-04 21:33 UTC. Time now 2014-Apr-19 19:35 UTC.
Position N 45°38' W 122°45'.
Warning: this ship's position is 14 days out of date.

Length 278.8 m; beam 40.3 m; draft 14 m.

Type: Ship (hazmat cat A). MMSI: 211378360.

NotesDate/timePositionNaut miles runAvg speedWind from/ knotsBaromVisibWave heightAir tempDewpointWater temp
2014-Apr-04 21:33N 45°38' W 122°45'0 0.0
2014-Apr-04 20:33N 45°38' W 122°45'0 0.0
2014-Apr-04 19:33N 45°38' W 122°45'0 0.0
2014-Apr-04 18:33N 45°38' W 122°45'0 0.0
2014-Apr-04 17:33N 45°38' W 122°45'0 0.0
2014-Apr-04 16:33N 45°38' W 122°45'0 0.0
2014-Apr-04 15:33N 45°38' W 122°45'0 0.0
2014-Apr-04 14:32N 45°38' W 122°45'0 0.0
2014-Apr-04 13:33N 45°38' W 122°45'0 0.0
2014-Apr-04 12:33N 45°38' W 122°45'0 0.0
2014-Apr-04 11:33N 45°38' W 122°45'0 0.0
2014-Apr-04 10:32N 45°38' W 122°45'0 0.0
2014-Apr-04 09:33N 45°38' W 122°45'0 0.0
2014-Apr-04 08:33N 45°38' W 122°45'192 5.8
2014-Apr-02 23:29N 48°25' W 125°07'3818.4
2014-Apr-02 21:26N 48°21' W 124°10'1820.2
2014-Apr-02 20:32N 48°16' W 123°43'1616.0
2014-Apr-02 19:33N 48°23' W 123°23'1312.9
2014-Apr-02 18:33N 48°35' W 123°14'1717.1
2014-Apr-02 17:33N 48°50' W 123°02'2020.3
2014-Apr-02 16:33N 49°04' W 123°24'1716.9
2014-Apr-02 15:33N 49°19' W 123°11'5 4.8
2014-Apr-02 14:33N 49°17' W 123°05'0 0.0
2014-Apr-02 13:33N 49°17' W 123°05'0 0.0
2014-Apr-02 12:33N 49°17' W 123°05'0 0.0
2014-Apr-02 11:33N 49°17' W 123°05'0 0.0
2014-Apr-02 10:33N 49°17' W 123°05'0 0.0
2014-Apr-02 09:33N 49°17' W 123°05'0 0.0
2014-Apr-02 08:33N 49°17' W 123°05'0 0.0
2014-Apr-02 07:33N 49°17' W 123°05'0 0.0
2014-Apr-02 06:34N 49°17' W 123°05'0 0.0
2014-Apr-02 05:33N 49°17' W 123°05'0 0.0
2014-Apr-02 04:34N 49°17' W 123°05'0 0.0
2014-Apr-02 03:33N 49°17' W 123°05'0 0.0
2014-Apr-02 02:34N 49°17' W 123°05'0 0.0
2014-Apr-02 01:34N 49°17' W 123°05'0 0.0
2014-Apr-02 00:34N 49°17' W 123°05'0 0.0
2014-Apr-01 23:34N 49°17' W 123°05'0 0.0
2014-Apr-01 22:33N 49°17' W 123°05'0 0.0
2014-Apr-01 21:33N 49°17' W 123°05'0 0.0
2014-Apr-01 20:33N 49°17' W 123°05'0 0.0
2014-Apr-01 19:33N 49°17' W 123°05'0 0.0
2014-Apr-01 18:34N 49°17' W 123°05'0 0.0
2014-Apr-01 17:33N 49°17' W 123°05'0 0.0
2014-Apr-01 16:34N 49°17' W 123°05'0 0.0
2014-Apr-01 15:34N 49°17' W 123°05'0 0.0
2014-Apr-01 14:34N 49°17' W 123°05'0 0.0
2014-Apr-01 13:34N 49°17' W 123°05'0 0.0
2014-Apr-01 12:34N 49°17' W 123°05'0 0.0
2014-Apr-01 11:34N 49°17' W 123°05'0 0.0
2014-Apr-01 10:34N 49°17' W 123°05'0 0.0
2014-Apr-01 09:34N 49°17' W 123°05'0 0.0
2014-Apr-01 08:33N 49°17' W 123°05'0 0.0
2014-Apr-01 07:34N 49°17' W 123°05'0 0.0
2014-Apr-01 06:34N 49°17' W 123°05'0 0.0
2014-Apr-01 05:34N 49°17' W 123°05'0 0.0
2014-Apr-01 04:34N 49°17' W 123°05'0 0.0
2014-Apr-01 03:34N 49°17' W 123°05'0 0.0
2014-Apr-01 02:34N 49°17' W 123°05'0 0.0
2014-Apr-01 01:34N 49°17' W 123°05'0 0.0
2014-Apr-01 00:34N 49°17' W 123°05'0 0.0
2014-Mar-31 23:34N 49°17' W 123°05'0 0.3
2014-Mar-31 22:34N 49°18' W 123°05'9 9.5
2014-Mar-31 21:34N 49°15' W 123°19'1211.9
2014-Mar-31 20:34N 49°03' W 123°20'1212.4
2014-Mar-31 19:34N 48°55' W 123°06'1110.4
2014-Mar-31 18:33N 48°44' W 123°07'1111.2
2014-Mar-31 17:34N 48°34' W 123°12'1313.2
2014-Mar-31 16:34N 48°22' W 123°20'9 9.5
2014-Mar-31 15:34N 48°13' W 123°27'4 3.9
2014-Mar-31 14:33N 48°10' W 123°23'1514.7
2014-Mar-31 13:31N 48°12' W 123°01'1818.8
2014-Mar-31 12:34N 48°03' W 122°38'2019.7
2014-Mar-31 11:34N 47°45' W 122°26'1010.2
2014-Mar-31 10:33N 47°36' W 122°21'0 0.0
2014-Mar-31 09:34N 47°36' W 122°21'0 0.0
2014-Mar-31 08:34N 47°36' W 122°21'0 0.0
2014-Mar-31 07:34N 47°36' W 122°21'0 0.0
2014-Mar-31 06:34N 47°36' W 122°21'0 0.0
2014-Mar-31 05:34N 47°36' W 122°21'0 0.0
2014-Mar-31 04:34N 47°36' W 122°21'0 0.0
2014-Mar-31 03:34N 47°36' W 122°21'0 0.0
2014-Mar-31 02:33N 47°36' W 122°21'0 0.0
2014-Mar-31 01:33N 47°36' W 122°21'0 0.0
2014-Mar-31 00:33N 47°36' W 122°21'0 0.0
2014-Mar-30 23:34N 47°36' W 122°21'0 0.0
2014-Mar-30 22:33N 47°36' W 122°21'0 0.0
2014-Mar-30 21:33N 47°36' W 122°21'0 0.0
2014-Mar-30 20:33N 47°36' W 122°21'0 0.0
2014-Mar-30 19:33N 47°36' W 122°21'0 0.0
2014-Mar-30 18:33N 47°36' W 122°21'0 0.0
2014-Mar-30 17:34N 47°36' W 122°21'0 0.0
2014-Mar-30 16:33N 47°36' W 122°21'0 0.0
2014-Mar-30 15:33N 47°36' W 122°21'0 0.0
2014-Mar-30 14:33N 47°36' W 122°21'0 0.0
2014-Mar-30 13:34N 47°36' W 122°21'2 1.6
2014-Mar-30 12:33N 47°36' W 122°23'9 9.5
2014-Mar-30 11:34N 47°45' W 122°27'1818.1
2014-Mar-30 10:33N 48°02' W 122°39'2120.1
2014-Mar-30 09:32N 48°12' W 123°05'1515.8
2014-Mar-30 08:34N 48°12' W 123°28'1111.3
2014-Mar-30 07:33N 48°13' W 123°45'5913.5
2014-Mar-30 03:10N 48°30' W 125°11'914.7
2014-Mar-30 02:33N 48°36' W 125°21'1414.6
2014-Mar-30 01:33N 48°45' W 125°38'1615.4
2014-Mar-30 00:33N 48°55' W 125°57'36815.1
2014-Mar-29 00:12N 54°10' W 131°02'913.9
2014-Mar-28 23:33N 54°19' W 130°59'1817.5
2014-Mar-28 22:33N 54°13' W 130°31'7 6.6
2014-Mar-28 21:32N 54°17' W 130°22'0 0.0
2014-Mar-28 20:31N 54°17' W 130°22'0 0.0
2014-Mar-28 19:31N 54°17' W 130°22'0 0.0
2014-Mar-28 18:33N 54°17' W 130°22'0 0.0
2014-Mar-28 17:33N 54°17' W 130°22'0 0.0
2014-Mar-28 16:32N 54°17' W 130°22'0 0.0
2014-Mar-28 15:32N 54°17' W 130°22'0 0.0
2014-Mar-28 14:31N 54°17' W 130°22'0 0.0
2014-Mar-28 13:31N 54°17' W 130°22'0 0.0
2014-Mar-28 12:31N 54°17' W 130°22'0 0.0
2014-Mar-28 11:33N 54°17' W 130°22'0 0.0
2014-Mar-28 10:33N 54°17' W 130°22'0 0.0
2014-Mar-28 09:32N 54°17' W 130°22'0 0.0
2014-Mar-28 08:32N 54°17' W 130°22'0 0.0
2014-Mar-28 07:31N 54°17' W 130°22'0 0.0
2014-Mar-28 06:31N 54°17' W 130°22'0 0.0
2014-Mar-28 05:31N 54°17' W 130°22'0 0.0
2014-Mar-28 04:33N 54°17' W 130°22'0 0.0
2014-Mar-28 03:33N 54°17' W 130°22'0 0.0
2014-Mar-28 02:32N 54°17' W 130°22'0 0.0
2014-Mar-28 01:32N 54°17' W 130°22'0 0.0
2014-Mar-28 00:31N 54°17' W 130°22'0 0.0
2014-Mar-27 23:31N 54°17' W 130°22'0 0.0
2014-Mar-27 22:31N 54°17' W 130°22'0 0.0
2014-Mar-27 21:33N 54°17' W 130°22'0 0.2
2014-Mar-27 20:34N 54°17' W 130°22'7 6.9
2014-Mar-27 19:33N 54°13' W 130°31'1615.8
2014-Mar-27 18:33N 54°19' W 130°56'  

Dump ship's entire track history

sailing weather and tide predictions

Hanjin Ottawa — DANM — position and weather